General Aviation Weather

Text Reports

Enter one or more of the following location identifiers separated by a space:

Zip Code, Four-Character ICAO or Three-Character IATA airport codes.

METAR - Aviation Routine Weather Report
KHFD - Hartford, Connecticut
Updated at 7:53 AM GMT on September 20, 2014 (3:53 AM EDT):
METAR KHFD 200753Z AUTO 14007KT 10SM OVC039 10/06 A3035 RMK AO2 SLP277 T01000061
TAF - Terminal Area Forecast
KHFD - Hartford, Connecticut
Updated at 7:53 AM GMT on September 20, 2014 (3:53 AM EDT):
No TAF is currently available for this location.
Decoded:
No decoded TAF is available.
PIREP - Pilot Weather Report
KHFD - Hartford, Connecticut
Updated at 7:53 AM GMT on September 20, 2014 (3:53 AM EDT):
No PIREP is currently available for this location.
AIRMET - Airmens Meteorological Information
KHFD - Hartford, Connecticut
Updated at 7:53 AM GMT on September 20, 2014 (3:53 AM EDT):
No AIRMET is currently available for this location.
SIGMET - Significant Meteorological Information
KHFD - Hartford, Connecticut
Updated at 7:53 AM GMT on September 20, 2014 (3:53 AM EDT):
No SIGMET is currently available for this location.
NOTAM - Notice to Airmen
KHFD - Hartford, Connecticut
Updated at 7:53 AM GMT on September 20, 2014 (3:53 AM EDT):
No NOTAM is currently available for this location.
Forecast Area
KHFD - Hartford, Connecticut
Updated at 7:53 AM GMT on September 20, 2014 (3:53 AM EDT):
No NOTAM is currently available for this location.
Aviation Weather Maps